createdAt,value
2019-01-09T09:14:37.130Z,95583.11
2019-01-09T09:17:05.376Z,95590.19
2019-01-09T09:19:33.641Z,95593.73
2019-01-09T09:22:01.927Z,95601.81
2019-01-09T09:24:30.205Z,95606.12
2019-01-09T09:26:58.456Z,95604.47
2019-01-09T09:29:26.722Z,95609.77
2019-01-09T09:31:54.967Z,95612.42
2019-01-09T09:34:23.236Z,95614.84
2019-01-09T09:36:51.485Z,95619.45
2019-01-09T09:39:19.755Z,95625.44
2019-01-09T09:41:48.004Z,95631.09
2019-01-09T09:44:16.270Z,95628.39
2019-01-09T09:46:44.512Z,95633.28
2019-01-09T09:49:12.778Z,95630.27
2019-01-09T09:51:41.023Z,95635.70
2019-01-09T09:54:09.299Z,95632.67
2019-01-09T09:56:37.547Z,95640.53
2019-01-09T09:59:05.815Z,95635.89
2019-01-09T10:01:37.309Z,95633.18
2019-01-09T10:04:05.581Z,95633.45
2019-01-09T10:06:33.830Z,95638.34
2019-01-09T10:09:02.079Z,95636.70
2019-01-09T10:11:30.344Z,95625.58
2019-01-09T10:13:58.592Z,95628.55
2019-01-09T10:16:26.860Z,95633.98
2019-01-09T10:18:55.102Z,95633.12
2019-01-09T10:21:23.371Z,95636.69
2019-01-09T10:23:51.614Z,95642.95
2019-01-09T10:26:19.883Z,95638.63
2019-01-09T10:28:48.128Z,95641.05
2019-01-09T10:31:16.399Z,95637.27
2019-01-09T10:33:44.645Z,95630.77
2019-01-09T10:36:12.955Z,95637.00
2019-01-09T10:38:41.194Z,95628.06
2019-01-09T10:41:09.471Z,95629.18
2019-01-09T10:43:37.711Z,95628.37
2019-01-09T10:46:05.976Z,95624.84
2019-01-09T10:48:34.222Z,95621.59
2019-01-09T10:51:04.884Z,95608.58
2019-01-09T10:53:33.209Z,95601.80
2019-01-09T10:56:01.962Z,95604.77
2019-01-09T10:58:30.279Z,95604.20
2019-01-09T11:00:58.545Z,95602.34
2019-01-09T11:03:26.793Z,95596.63
2019-01-09T11:05:55.061Z,95596.63
2019-01-09T11:08:23.343Z,95593.92
2019-01-09T11:10:51.611Z,95591.98
2019-01-09T11:13:19.858Z,95586.56
2019-01-09T11:15:48.129Z,95590.63
2019-01-09T11:18:16.370Z,95593.92
2019-01-09T11:20:44.641Z,95587.97
2019-01-09T11:23:12.920Z,95591.52
2019-01-09T11:25:41.159Z,95584.75
2019-01-09T11:28:09.403Z,95594.78
2019-01-09T11:30:37.670Z,95581.74
2019-01-09T11:33:05.916Z,95586.13
2019-01-09T11:35:34.179Z,95593.69
2019-01-09T11:38:02.424Z,95586.91
2019-01-09T11:40:30.692Z,95589.34
2019-01-09T11:42:58.934Z,95584.99
2019-01-09T11:45:27.208Z,95581.73
2019-01-09T11:47:55.451Z,95583.85
2019-01-09T11:50:23.727Z,95580.86
2019-01-09T11:52:51.971Z,95585.45
2019-01-09T11:55:20.236Z,95574.06
2019-01-09T11:57:48.482Z,95578.94
2019-01-09T12:00:20.014Z,95570.23
2019-01-09T12:02:48.257Z,95586.51
2019-01-09T12:05:16.524Z,95571.05
2019-01-09T12:07:44.774Z,95564.49
2019-01-09T12:10:29.825Z,95560.97
2019-01-09T12:12:51.746Z,95564.75
2019-01-09T12:15:20.020Z,95558.23
2019-01-09T12:17:48.259Z,95564.75
2019-01-09T12:20:18.364Z,95562.85
2019-01-09T12:22:46.607Z,95557.42
2019-01-09T12:25:14.877Z,95554.45
2019-01-09T12:27:43.121Z,95553.09
2019-01-09T12:30:22.980Z,95554.45
2019-01-09T12:32:51.227Z,95556.62
2019-01-09T12:35:19.471Z,95563.14
2019-01-09T12:37:47.738Z,95560.48
2019-01-09T12:40:15.984Z,95559.92
2019-01-09T12:42:44.255Z,95569.70
2019-01-09T12:45:17.112Z,95577.58
2019-01-09T12:47:45.379Z,95580.58
2019-01-09T12:50:19.491Z,95581.93
2019-01-09T12:52:47.762Z,95575.96
2019-01-09T12:55:16.007Z,95575.96
2019-01-09T12:57:44.482Z,95565.11
2019-01-09T13:00:22.081Z,95567.82
2019-01-09T13:02:50.347Z,95557.25
2019-01-09T13:05:18.674Z,95552.64
2019-01-09T13:07:46.943Z,95549.41
2019-01-09T13:10:15.191Z,95554.83
2019-01-09T13:12:43.459Z,95549.41
2019-01-09T13:15:11.879Z,95555.64
2019-01-09T13:17:40.147Z,95576.03
2019-01-09T13:20:13.530Z,95576.58
2019-01-09T13:22:41.791Z,95593.39
2019-01-09T13:25:11.469Z,95605.59
2019-01-09T13:27:39.734Z,95622.13
2019-01-09T13:30:13.218Z,95619.37
2019-01-09T13:32:41.699Z,95591.20
2019-01-09T13:35:09.943Z,95583.30
2019-01-09T13:37:38.291Z,95571.09
2019-01-09T13:40:12.411Z,95565.44
2019-01-09T13:42:40.679Z,95569.74
2019-01-09T13:45:11.563Z,95567.30
2019-01-09T13:47:39.832Z,95570.01
2019-01-09T13:50:11.209Z,95569.18
2019-01-09T13:52:39.545Z,95565.11
2019-01-09T13:55:09.828Z,95566.73
2019-01-09T13:57:38.095Z,95566.73
2019-01-09T14:00:12.327Z,95566.99
2019-01-09T14:02:40.594Z,95568.09
2019-01-09T14:05:09.714Z,95568.63
2019-01-09T14:07:37.943Z,95566.99
2019-01-09T14:10:10.972Z,95581.91
2019-01-09T14:12:39.495Z,95572.70
2019-01-09T14:15:11.042Z,95576.24
2019-01-09T14:17:39.310Z,95581.13
2019-01-09T14:20:10.592Z,95580.05
2019-01-09T14:22:38.861Z,95571.65
2019-01-09T14:25:09.842Z,95587.14
2019-01-09T14:27:38.105Z,95577.65
2019-01-09T14:30:20.906Z,95584.16
2019-01-09T14:32:49.171Z,95585.52
2019-01-09T14:35:17.416Z,95591.77
2019-01-09T14:37:45.683Z,95598.00
2019-01-09T14:40:19.126Z,95603.15
2019-01-09T14:42:47.389Z,95593.88
2019-01-09T14:45:16.981Z,95602.82
2019-01-09T14:47:46.099Z,95602.82
2019-01-09T14:50:17.598Z,95613.93
2019-01-09T14:52:45.892Z,95613.67
2019-01-09T14:55:14.553Z,95611.22
2019-01-09T14:57:42.825Z,95622.33
2019-01-09T15:00:19.567Z,95621.02
2019-01-09T15:02:47.838Z,95620.05
2019-01-09T15:05:16.124Z,95624.98
2019-01-09T15:07:44.348Z,95627.43
2019-01-09T15:10:21.855Z,95622.00
2019-01-09T15:12:50.779Z,95626.65
2019-01-09T15:15:19.020Z,95626.38
2019-01-09T15:17:47.335Z,95635.06
2019-01-09T15:20:17.413Z,95635.88
2019-01-09T15:22:45.655Z,95645.38
2019-01-09T15:25:14.999Z,95649.13
2019-01-09T15:27:43.247Z,95647.82
2019-01-09T15:30:17.538Z,95651.61
2019-01-09T15:32:45.781Z,95652.72
2019-01-09T15:35:14.590Z,95653.00
2019-01-09T15:37:42.904Z,95655.71
2019-01-09T15:40:14.517Z,95661.13
2019-01-09T15:42:42.763Z,95660.94
2019-01-09T15:45:12.827Z,95662.09
2019-01-09T15:47:41.178Z,95660.97
2019-01-09T15:50:12.948Z,95665.83
2019-01-09T15:52:41.200Z,95663.65
2019-01-09T15:55:12.566Z,95662.02
2019-01-09T15:57:41.248Z,95676.65
2019-01-09T16:00:21.187Z,95672.58
2019-01-09T16:02:49.626Z,95675.53
2019-01-09T16:05:18.034Z,95677.46
2019-01-09T16:07:46.309Z,95680.95
2019-01-09T16:10:20.055Z,95679.36
2019-01-09T16:12:48.299Z,95685.02
2019-01-09T16:15:17.604Z,95692.34
2019-01-09T16:17:45.853Z,95697.22
2019-01-09T16:20:19.093Z,95697.75
2019-01-09T16:22:47.333Z,95689.91
2019-01-09T16:25:15.869Z,95691.31
2019-01-09T16:27:44.109Z,95690.22
2019-01-09T16:30:21.359Z,95686.18
2019-01-09T16:32:49.599Z,95690.53
2019-01-09T16:35:18.000Z,95692.17
2019-01-09T16:37:46.247Z,95689.98
2019-01-09T16:40:23.266Z,95693.25
2019-01-09T16:42:45.897Z,95691.08
2019-01-09T16:45:15.238Z,95694.89
2019-01-09T16:47:43.494Z,95694.60
2019-01-09T16:50:15.377Z,95701.39
2019-01-09T16:52:43.627Z,95700.58
2019-01-09T16:55:12.037Z,95714.41
2019-01-09T16:57:40.694Z,95718.47
2019-01-09T17:00:12.209Z,95722.81
2019-01-09T17:02:41.310Z,95723.36
2019-01-09T17:05:11.020Z,95728.23
2019-01-09T17:07:39.277Z,95729.58
2019-01-09T17:10:11.089Z,95732.84
2019-01-09T17:12:39.335Z,95740.43
2019-01-09T17:16:02.119Z,95742.32
2019-01-09T17:18:30.366Z,95747.05
2019-01-09T17:20:58.626Z,95747.41
2019-01-09T17:23:26.873Z,95749.57
2019-01-09T17:25:55.421Z,95764.22
2019-01-09T17:28:23.664Z,95768.02
2019-01-09T17:30:51.934Z,95772.11
2019-01-09T17:33:20.180Z,95772.66
2019-01-09T17:35:48.449Z,95769.41
2019-01-09T17:38:16.703Z,95768.05
2019-01-09T17:40:44.969Z,95774.02
2019-01-09T17:43:13.212Z,95768.05
2019-01-09T17:45:41.477Z,95777.00
2019-01-09T17:48:09.727Z,95774.84
2019-01-09T17:50:38.641Z,95774.84
2019-01-09T17:53:06.996Z,95774.07
2019-01-09T17:55:35.235Z,95776.78
2019-01-09T17:58:03.487Z,95776.52
2019-01-09T18:00:35.008Z,95783.83
2019-01-09T18:03:03.630Z,95779.50
2019-01-09T18:05:31.899Z,95786.56
2019-01-09T18:08:00.146Z,95789.81
2019-01-09T18:10:28.497Z,95788.45
2019-01-09T18:12:56.741Z,95785.48
2019-01-09T18:15:25.266Z,95783.86
2019-01-09T18:17:53.534Z,95789.28
2019-01-09T18:20:23.011Z,95785.76
2019-01-09T18:22:51.289Z,95794.45
2019-01-09T18:25:27.524Z,95786.30
2019-01-09T18:27:55.796Z,95791.47
2019-01-09T18:30:36.249Z,95797.16
2019-01-09T18:33:19.189Z,95793.91
2019-01-09T18:36:05.597Z,95799.34
2019-01-09T18:38:58.097Z,95799.10
2019-01-09T18:41:38.463Z,95810.19
2019-01-09T18:44:26.421Z,95807.74
2019-01-09T18:47:16.010Z,95803.67
2019-01-09T18:50:08.667Z,95806.12
2019-01-09T18:52:43.317Z,95807.24
2019-01-09T18:55:11.564Z,95815.12
2019-01-09T18:57:39.836Z,95818.91
2019-01-09T19:00:14.466Z,95820.27
2019-01-09T19:02:42.735Z,95819.45
2019-01-09T19:05:10.978Z,95823.75
2019-01-09T19:07:39.252Z,95821.62
2019-01-09T19:10:16.567Z,95828.91
2019-01-09T19:12:45.125Z,95826.19
2019-01-09T19:15:14.203Z,95837.32
2019-01-09T19:17:42.475Z,95837.59
2019-01-09T19:20:12.161Z,95827.83
2019-01-09T19:22:40.426Z,95840.84
2019-01-09T19:25:12.248Z,95836.54
2019-01-09T19:27:40.585Z,95825.11
2019-01-09T19:30:17.985Z,95841.66
2019-01-09T19:32:46.255Z,95845.22
2019-01-09T19:35:14.977Z,95848.75
2019-01-09T19:37:43.243Z,95844.95
2019-01-09T19:40:11.494Z,95849.30
2019-01-09T19:42:39.766Z,95853.36
2019-01-09T19:45:10.548Z,95845.50
2019-01-09T19:47:38.814Z,95847.41
2019-01-09T19:50:22.192Z,95853.64
2019-01-09T19:52:50.898Z,95855.81
2019-01-09T19:55:19.144Z,95863.95
2019-01-09T19:57:47.410Z,95860.96
2019-01-09T20:00:23.945Z,95869.37
2019-01-09T20:02:52.214Z,95872.91
2019-01-09T20:05:20.511Z,95875.89
2019-01-09T20:07:48.849Z,95884.03
2019-01-09T20:10:19.892Z,95881.85
2019-01-09T20:12:48.209Z,95885.11
2019-01-09T20:15:17.692Z,95882.67
2019-01-09T20:17:46.016Z,95884.03
2019-01-09T20:20:16.740Z,95881.59
2019-01-09T20:22:45.404Z,95883.75
